Duke Street, Reading, Berkshire, RG1 4RU, United Kingdom

Camera Oscura

Reading Town Centre Webcam

Oscura's Reading Webcam is aimed out of our top floor offices in Duke Street, central Reading town centre, Berkshire. Our camera is facing South West with a view of the Reading Oracle Shopping Centre.

Current weather conditions and forecast for Reading, Berkshire

When Temp Weather Wind Cloud Humidity Rain Snow
Now 18C Intermittent Rain 13mph SW 99% 69% 47% 0%
17 Aug 21:00 16C Partly Cloudy 11mph SW 94% 80% 23% 0%
18 Aug 00:00 14C Intermittent Rain 8mph SW 99% 88% 47% 0%
18 Aug 03:00 13C Intermittent Rain 6mph SSW 100% 92% 47% 0%
18 Aug 06:00 13C Showers 4mph SW 67% 96% 23% 0%
18 Aug 09:00 14C Showers 11mph WSW 46% 80% 23% 0%
18 Aug 12:00 16C Partly Cloudy 15mph WSW 41% 62% 0% 0%
18 Aug 15:00 18C Fair 15mph WSW 36% 55% 23% 0%
18 Aug 18:00 17C Intermittent Rain 13mph WSW 81% 75% 47% 0%
18 Aug 21:00 15C Showers 8mph WSW 41% 81% 47% 0%
19 Aug 00:00 13C Fair 11mph SW 26% 87% 0% 0%
19 Aug 03:00 12C Fair 11mph SW 32% 89% 0% 0%
19 Aug 06:00 12C Fair 11mph SW 38% 91% 0% 0%
19 Aug 09:00 13C Partly Cloudy 11mph WSW 45% 84% 0% 0%
19 Aug 12:00 16C Showers 13mph WSW 50% 62% 25% 0%
19 Aug 15:00 16C Intermittent Rain 13mph WSW 91% 68% 15% 0%
19 Aug 18:00 17C Showers 11mph WSW 43% 62% 15% 0%
19 Aug 21:00 14C Clear 6mph W 0% 76% 0% 0%
20 Aug 00:00 11C Clear 6mph WSW 4% 87% 0% 0%
20 Aug 03:00 10C Fair 6mph WSW 7% 94% 0% 0%
20 Aug 07:00 9C Fair 4mph SW 20% 94% 0% 0%
20 Aug 10:00 13C Fair 4mph WNW 22% 76% 0% 0%
20 Aug 13:00 17C Fair 8mph W 27% 55% 0% 0%
20 Aug 16:00 17C Fair 8mph WNW 37% 53% 0% 0%
20 Aug 19:00 17C Clear 8mph WNW 1% 56% 0% 0%


Oscura provide website development, web server hosting, Internet services and IT Support in Reading and the surrounding area.